Terminal Aerodrome Forecast
Issued by NWS

Current Version | Previous Version | Text Only | Print | Product List | Glossary Off
Versions: 1 2 3 4 5 6 7 8 9 10 11 12 13 14 15 16 17 18 19 20 21 22 23 24 25 26 27 28

134
FTUS41 KILN 290258 AAB
TAFLCK
TAF AMD
KLCK 290258Z 2903/2924 04004KT 5SM BR SCT018 OVC060
     FM290400 34004KT 3SM BR OVC015
     FM290600 34003KT 2SM BR OVC008
     FM291300 32005KT 5SM BR OVC015
     FM291600 28006KT P6SM BKN025=

USA.gov is the U.S. government's official web portal to all federal, state and local government web resources and services.